sensor_id;sensor_type;location;lat;lon;timestamp;P1;durP1;ratioP1;P2;durP2;ratioP2
7969;SDS011;4030;52.362;9.206;2024-03-25T00:00:22;3.03;;;1.40;;
7969;SDS011;4030;52.362;9.206;2024-03-25T00:02:50;2.60;;;1.20;;
7969;SDS011;4030;52.362;9.206;2024-03-25T00:05:16;3.70;;;1.33;;
7969;SDS011;4030;52.362;9.206;2024-03-25T00:07:48;3.50;;;1.30;;
7969;SDS011;4030;52.362;9.206;2024-03-25T00:10:14;3.40;;;1.33;;
7969;SDS011;4030;52.362;9.206;2024-03-25T00:12:40;3.33;;;1.43;;
7969;SDS011;4030;52.362;9.206;2024-03-25T00:15:06;4.57;;;1.40;;
7969;SDS011;4030;52.362;9.206;2024-03-25T00:17:32;3.70;;;1.40;;
7969;SDS011;4030;52.362;9.206;2024-03-25T00:19:59;4.57;;;1.50;;
7969;SDS011;4030;52.362;9.206;2024-03-25T00:22:24;2.73;;;1.40;;
7969;SDS011;4030;52.362;9.206;2024-03-25T00:24:50;4.17;;;1.60;;
7969;SDS011;4030;52.362;9.206;2024-03-25T00:27:16;3.17;;;1.40;;
7969;SDS011;4030;52.362;9.206;2024-03-25T00:29:42;3.17;;;1.23;;
7969;SDS011;4030;52.362;9.206;2024-03-25T00:32:09;3.33;;;1.47;;
7969;SDS011;4030;52.362;9.206;2024-03-25T00:34:35;2.47;;;1.37;;
7969;SDS011;4030;52.362;9.206;2024-03-25T00:37:01;2.93;;;1.40;;
7969;SDS011;4030;52.362;9.206;2024-03-25T00:39:28;2.67;;;1.37;;
7969;SDS011;4030;52.362;9.206;2024-03-25T00:41:57;2.67;;;1.20;;
7969;SDS011;4030;52.362;9.206;2024-03-25T00:44:23;4.17;;;1.50;;
7969;SDS011;4030;52.362;9.206;2024-03-25T00:46:49;4.10;;;1.90;;
7969;SDS011;4030;52.362;9.206;2024-03-25T00:49:15;3.03;;;1.50;;
7969;SDS011;4030;52.362;9.206;2024-03-25T00:51:40;3.20;;;1.27;;
7969;SDS011;4030;52.362;9.206;2024-03-25T00:54:06;4.70;;;1.60;;
7969;SDS011;4030;52.362;9.206;2024-03-25T00:56:32;2.83;;;1.30;;
7969;SDS011;4030;52.362;9.206;2024-03-25T00:58:58;2.43;;;1.37;;
7969;SDS011;4030;52.362;9.206;2024-03-25T01:01:27;2.03;;;1.20;;
7969;SDS011;4030;52.362;9.206;2024-03-25T01:03:54;2.17;;;1.30;;
7969;SDS011;4030;52.362;9.206;2024-03-25T01:06:20;3.47;;;1.33;;
7969;SDS011;4030;52.362;9.206;2024-03-25T01:08:46;3.77;;;1.70;;
7969;SDS011;4030;52.362;9.206;2024-03-25T01:11:11;4.07;;;1.47;;
7969;SDS011;4030;52.362;9.206;2024-03-25T01:13:37;3.80;;;1.57;;
7969;SDS011;4030;52.362;9.206;2024-03-25T01:16:03;4.03;;;1.50;;
7969;SDS011;4030;52.362;9.206;2024-03-25T01:18:29;3.80;;;1.57;;
7969;SDS011;4030;52.362;9.206;2024-03-25T01:20:54;4.57;;;1.30;;
7969;SDS011;4030;52.362;9.206;2024-03-25T01:23:20;3.60;;;1.50;;
7969;SDS011;4030;52.362;9.206;2024-03-25T01:25:46;3.50;;;1.30;;
7969;SDS011;4030;52.362;9.206;2024-03-25T01:28:11;2.50;;;1.40;;
7969;SDS011;4030;52.362;9.206;2024-03-25T01:30:37;4.03;;;1.43;;
7969;SDS011;4030;52.362;9.206;2024-03-25T01:33:04;2.17;;;1.17;;
7969;SDS011;4030;52.362;9.206;2024-03-25T01:35:30;3.90;;;1.50;;
7969;SDS011;4030;52.362;9.206;2024-03-25T01:37:56;3.67;;;1.30;;
7969;SDS011;4030;52.362;9.206;2024-03-25T01:40:22;2.87;;;1.40;;
7969;SDS011;4030;52.362;9.206;2024-03-25T01:43:22;2.90;;;1.20;;
7969;SDS011;4030;52.362;9.206;2024-03-25T01:45:40;4.03;;;1.60;;
7969;SDS011;4030;52.362;9.206;2024-03-25T01:48:07;2.30;;;1.20;;
7969;SDS011;4030;52.362;9.206;2024-03-25T01:50:38;3.53;;;1.10;;
7969;SDS011;4030;52.362;9.206;2024-03-25T01:53:07;2.30;;;1.20;;
7969;SDS011;4030;52.362;9.206;2024-03-25T01:55:34;4.30;;;1.30;;
7969;SDS011;4030;52.362;9.206;2024-03-25T01:58:01;2.47;;;1.27;;
7969;SDS011;4030;52.362;9.206;2024-03-25T02:00:27;1.70;;;1.20;;
7969;SDS011;4030;52.362;9.206;2024-03-25T02:02:53;3.27;;;1.20;;
7969;SDS011;4030;52.362;9.206;2024-03-25T02:05:20;2.77;;;1.27;;
7969;SDS011;4030;52.362;9.206;2024-03-25T02:07:46;3.33;;;1.20;;
7969;SDS011;4030;52.362;9.206;2024-03-25T02:10:14;2.43;;;1.30;;
7969;SDS011;4030;52.362;9.206;2024-03-25T02:12:43;2.13;;;1.17;;
7969;SDS011;4030;52.362;9.206;2024-03-25T02:15:11;2.47;;;1.07;;
7969;SDS011;4030;52.362;9.206;2024-03-25T02:17:38;3.07;;;1.40;;
7969;SDS011;4030;52.362;9.206;2024-03-25T02:20:04;2.37;;;1.30;;
7969;SDS011;4030;52.362;9.206;2024-03-25T02:22:32;2.70;;;1.03;;
7969;SDS011;4030;52.362;9.206;2024-03-25T02:24:59;3.60;;;1.30;;
7969;SDS011;4030;52.362;9.206;2024-03-25T02:27:26;2.17;;;1.17;;
7969;SDS011;4030;52.362;9.206;2024-03-25T02:30:01;2.57;;;1.30;;
7969;SDS011;4030;52.362;9.206;2024-03-25T02:32:31;4.30;;;1.30;;
7969;SDS011;4030;52.362;9.206;2024-03-25T02:34:57;2.17;;;1.10;;
7969;SDS011;4030;52.362;9.206;2024-03-25T02:37:23;3.17;;;1.17;;
7969;SDS011;4030;52.362;9.206;2024-03-25T02:39:49;4.30;;;1.27;;
7969;SDS011;4030;52.362;9.206;2024-03-25T02:42:15;2.23;;;1.07;;
7969;SDS011;4030;52.362;9.206;2024-03-25T02:44:41;2.00;;;1.07;;
7969;SDS011;4030;52.362;9.206;2024-03-25T02:47:08;2.87;;;1.20;;
7969;SDS011;4030;52.362;9.206;2024-03-25T02:49:34;2.53;;;1.27;;
7969;SDS011;4030;52.362;9.206;2024-03-25T02:52:00;3.17;;;1.30;;
7969;SDS011;4030;52.362;9.206;2024-03-25T02:54:26;2.27;;;1.17;;
7969;SDS011;4030;52.362;9.206;2024-03-25T02:56:52;4.10;;;1.60;;
7969;SDS011;4030;52.362;9.206;2024-03-25T02:59:17;2.73;;;1.20;;
7969;SDS011;4030;52.362;9.206;2024-03-25T03:01:43;3.53;;;1.10;;
7969;SDS011;4030;52.362;9.206;2024-03-25T03:04:09;3.80;;;1.20;;
7969;SDS011;4030;52.362;9.206;2024-03-25T03:06:34;3.17;;;1.40;;
7969;SDS011;4030;52.362;9.206;2024-03-25T03:09:00;3.17;;;1.30;;
7969;SDS011;4030;52.362;9.206;2024-03-25T03:11:26;3.07;;;1.13;;
7969;SDS011;4030;52.362;9.206;2024-03-25T03:13:51;2.40;;;1.20;;
7969;SDS011;4030;52.362;9.206;2024-03-25T03:16:17;2.63;;;1.10;;
7969;SDS011;4030;52.362;9.206;2024-03-25T03:18:43;2.00;;;1.20;;
7969;SDS011;4030;52.362;9.206;2024-03-25T03:21:08;3.27;;;1.50;;
7969;SDS011;4030;52.362;9.206;2024-03-25T03:23:34;4.37;;;1.40;;
7969;SDS011;4030;52.362;9.206;2024-03-25T03:25:59;3.63;;;1.40;;
7969;SDS011;4030;52.362;9.206;2024-03-25T03:28:25;2.33;;;1.30;;
7969;SDS011;4030;52.362;9.206;2024-03-25T03:30:53;3.13;;;1.30;;
7969;SDS011;4030;52.362;9.206;2024-03-25T03:33:18;3.80;;;1.40;;
7969;SDS011;4030;52.362;9.206;2024-03-25T03:35:44;2.67;;;1.30;;
7969;SDS011;4030;52.362;9.206;2024-03-25T03:38:10;3.83;;;1.40;;
7969;SDS011;4030;52.362;9.206;2024-03-25T03:40:35;3.10;;;1.47;;
7969;SDS011;4030;52.362;9.206;2024-03-25T03:43:01;4.00;;;1.27;;
7969;SDS011;4030;52.362;9.206;2024-03-25T03:45:32;5.03;;;1.93;;
7969;SDS011;4030;52.362;9.206;2024-03-25T03:47:59;4.07;;;1.60;;
7969;SDS011;4030;52.362;9.206;2024-03-25T03:50:25;3.37;;;1.50;;
7969;SDS011;4030;52.362;9.206;2024-03-25T03:52:50;4.27;;;1.50;;
7969;SDS011;4030;52.362;9.206;2024-03-25T03:55:16;3.47;;;1.40;;
7969;SDS011;4030;52.362;9.206;2024-03-25T03:57:42;5.20;;;1.77;;
7969;SDS011;4030;52.362;9.206;2024-03-25T04:00:08;4.63;;;1.60;;
7969;SDS011;4030;52.362;9.206;2024-03-25T04:02:36;4.70;;;1.80;;
7969;SDS011;4030;52.362;9.206;2024-03-25T04:05:03;3.97;;;1.87;;
7969;SDS011;4030;52.362;9.206;2024-03-25T04:07:29;4.80;;;2.00;;
7969;SDS011;4030;52.362;9.206;2024-03-25T04:09:57;4.20;;;1.67;;
7969;SDS011;4030;52.362;9.206;2024-03-25T04:12:23;5.27;;;1.70;;
7969;SDS011;4030;52.362;9.206;2024-03-25T04:14:48;5.37;;;1.70;;
7969;SDS011;4030;52.362;9.206;2024-03-25T04:17:19;6.27;;;1.80;;
7969;SDS011;4030;52.362;9.206;2024-03-25T04:19:46;3.97;;;1.90;;
7969;SDS011;4030;52.362;9.206;2024-03-25T04:22:16;4.67;;;1.60;;
7969;SDS011;4030;52.362;9.206;2024-03-25T04:24:45;5.57;;;1.70;;
7969;SDS011;4030;52.362;9.206;2024-03-25T04:27:12;5.63;;;2.00;;
7969;SDS011;4030;52.362;9.206;2024-03-25T04:29:37;4.60;;;1.60;;
7969;SDS011;4030;52.362;9.206;2024-03-25T04:32:03;5.17;;;2.00;;
7969;SDS011;4030;52.362;9.206;2024-03-25T04:34:29;5.50;;;1.73;;
7969;SDS011;4030;52.362;9.206;2024-03-25T04:36:55;5.90;;;2.00;;
7969;SDS011;4030;52.362;9.206;2024-03-25T04:39:21;5.63;;;2.00;;
7969;SDS011;4030;52.362;9.206;2024-03-25T04:41:48;6.00;;;2.40;;
7969;SDS011;4030;52.362;9.206;2024-03-25T04:44:13;4.20;;;1.60;;
7969;SDS011;4030;52.362;9.206;2024-03-25T04:46:39;5.00;;;2.00;;
7969;SDS011;4030;52.362;9.206;2024-03-25T04:49:05;5.07;;;1.70;;
7969;SDS011;4030;52.362;9.206;2024-03-25T04:51:31;5.17;;;1.80;;
7969;SDS011;4030;52.362;9.206;2024-03-25T04:53:57;5.60;;;2.10;;
7969;SDS011;4030;52.362;9.206;2024-03-25T04:56:23;4.23;;;1.87;;
7969;SDS011;4030;52.362;9.206;2024-03-25T04:58:48;6.73;;;2.00;;
7969;SDS011;4030;52.362;9.206;2024-03-25T05:01:14;5.17;;;1.87;;
7969;SDS011;4030;52.362;9.206;2024-03-25T05:03:40;4.63;;;1.70;;
7969;SDS011;4030;52.362;9.206;2024-03-25T05:06:05;6.23;;;1.87;;
7969;SDS011;4030;52.362;9.206;2024-03-25T05:08:34;5.90;;;2.20;;
7969;SDS011;4030;52.362;9.206;2024-03-25T05:11:00;5.87;;;2.00;;
7969;SDS011;4030;52.362;9.206;2024-03-25T05:13:25;5.07;;;1.60;;
7969;SDS011;4030;52.362;9.206;2024-03-25T05:15:51;5.40;;;2.10;;
7969;SDS011;4030;52.362;9.206;2024-03-25T05:18:17;6.27;;;2.27;;
7969;SDS011;4030;52.362;9.206;2024-03-25T05:20:44;5.73;;;1.90;;
7969;SDS011;4030;52.362;9.206;2024-03-25T05:23:10;5.50;;;2.13;;
7969;SDS011;4030;52.362;9.206;2024-03-25T05:25:36;5.47;;;2.00;;
7969;SDS011;4030;52.362;9.206;2024-03-25T05:28:03;5.80;;;2.00;;
7969;SDS011;4030;52.362;9.206;2024-03-25T05:30:29;5.23;;;2.00;;
7969;SDS011;4030;52.362;9.206;2024-03-25T05:32:55;5.47;;;1.90;;
7969;SDS011;4030;52.362;9.206;2024-03-25T05:35:21;7.03;;;1.83;;
7969;SDS011;4030;52.362;9.206;2024-03-25T05:37:46;4.67;;;1.80;;
7969;SDS011;4030;52.362;9.206;2024-03-25T05:40:12;6.77;;;2.00;;
7969;SDS011;4030;52.362;9.206;2024-03-25T05:42:40;6.20;;;2.00;;
7969;SDS011;4030;52.362;9.206;2024-03-25T05:45:05;7.03;;;2.10;;
7969;SDS011;4030;52.362;9.206;2024-03-25T05:47:32;7.73;;;2.33;;
7969;SDS011;4030;52.362;9.206;2024-03-25T05:49:57;3.43;;;1.67;;
7969;SDS011;4030;52.362;9.206;2024-03-25T05:52:28;6.63;;;2.20;;
7969;SDS011;4030;52.362;9.206;2024-03-25T05:54:53;8.40;;;2.10;;
7969;SDS011;4030;52.362;9.206;2024-03-25T05:57:19;5.60;;;2.03;;
7969;SDS011;4030;52.362;9.206;2024-03-25T05:59:45;6.97;;;2.23;;
7969;SDS011;4030;52.362;9.206;2024-03-25T06:02:11;4.43;;;1.83;;
7969;SDS011;4030;52.362;9.206;2024-03-25T06:04:37;6.00;;;2.10;;
7969;SDS011;4030;52.362;9.206;2024-03-25T06:07:02;6.30;;;2.33;;
7969;SDS011;4030;52.362;9.206;2024-03-25T06:09:28;6.90;;;2.30;;
7969;SDS011;4030;52.362;9.206;2024-03-25T06:11:54;6.50;;;2.33;;
7969;SDS011;4030;52.362;9.206;2024-03-25T06:14:19;5.97;;;2.33;;
7969;SDS011;4030;52.362;9.206;2024-03-25T06:16:45;4.40;;;2.13;;
7969;SDS011;4030;52.362;9.206;2024-03-25T06:19:11;6.97;;;2.40;;
7969;SDS011;4030;52.362;9.206;2024-03-25T06:21:37;4.00;;;1.87;;
7969;SDS011;4030;52.362;9.206;2024-03-25T06:24:03;5.20;;;2.00;;
7969;SDS011;4030;52.362;9.206;2024-03-25T06:26:29;8.70;;;2.53;;
7969;SDS011;4030;52.362;9.206;2024-03-25T06:28:54;8.13;;;2.40;;
7969;SDS011;4030;52.362;9.206;2024-03-25T06:31:20;7.80;;;2.40;;
7969;SDS011;4030;52.362;9.206;2024-03-25T06:34:04;6.20;;;2.43;;
7969;SDS011;4030;52.362;9.206;2024-03-25T06:36:39;6.80;;;2.03;;
7969;SDS011;4030;52.362;9.206;2024-03-25T06:39:06;6.73;;;2.10;;
7969;SDS011;4030;52.362;9.206;2024-03-25T06:41:31;4.97;;;2.20;;
7969;SDS011;4030;52.362;9.206;2024-03-25T06:43:57;5.43;;;2.10;;
7969;SDS011;4030;52.362;9.206;2024-03-25T06:46:23;6.40;;;2.07;;
7969;SDS011;4030;52.362;9.206;2024-03-25T06:48:49;6.57;;;2.30;;
7969;SDS011;4030;52.362;9.206;2024-03-25T06:51:15;6.80;;;2.60;;
7969;SDS011;4030;52.362;9.206;2024-03-25T06:53:40;6.33;;;2.23;;
7969;SDS011;4030;52.362;9.206;2024-03-25T06:56:06;5.53;;;2.40;;
7969;SDS011;4030;52.362;9.206;2024-03-25T06:58:32;5.93;;;2.30;;
7969;SDS011;4030;52.362;9.206;2024-03-25T07:01:04;6.17;;;2.23;;
7969;SDS011;4030;52.362;9.206;2024-03-25T07:03:33;6.50;;;2.17;;
7969;SDS011;4030;52.362;9.206;2024-03-25T07:06:00;6.23;;;2.43;;
7969;SDS011;4030;52.362;9.206;2024-03-25T07:08:26;5.40;;;2.27;;
7969;SDS011;4030;52.362;9.206;2024-03-25T07:10:53;6.70;;;2.30;;
7969;SDS011;4030;52.362;9.206;2024-03-25T07:13:19;7.47;;;2.00;;
7969;SDS011;4030;52.362;9.206;2024-03-25T07:15:45;9.60;;;2.43;;
7969;SDS011;4030;52.362;9.206;2024-03-25T07:18:11;6.47;;;2.27;;
7969;SDS011;4030;52.362;9.206;2024-03-25T07:20:38;6.90;;;2.40;;
7969;SDS011;4030;52.362;9.206;2024-03-25T07:23:07;4.60;;;2.00;;
7969;SDS011;4030;52.362;9.206;2024-03-25T07:25:34;9.57;;;2.13;;
7969;SDS011;4030;52.362;9.206;2024-03-25T07:27:59;6.93;;;2.33;;
7969;SDS011;4030;52.362;9.206;2024-03-25T07:30:25;5.18;;;2.40;;
7969;SDS011;4030;52.362;9.206;2024-03-25T07:32:53;7.22;;;2.30;;
7969;SDS011;4030;52.362;9.206;2024-03-25T07:35:20;5.25;;;2.33;;
7969;SDS011;4030;52.362;9.206;2024-03-25T07:37:46;8.32;;;2.60;;
7969;SDS011;4030;52.362;9.206;2024-03-25T07:40:12;6.57;;;2.20;;
7969;SDS011;4030;52.362;9.206;2024-03-25T07:42:38;6.47;;;2.20;;
7969;SDS011;4030;52.362;9.206;2024-03-25T07:45:04;7.60;;;2.30;;
7969;SDS011;4030;52.362;9.206;2024-03-25T07:47:31;5.78;;;2.28;;
7969;SDS011;4030;52.362;9.206;2024-03-25T07:49:57;7.50;;;2.45;;
7969;SDS011;4030;52.362;9.206;2024-03-25T07:52:24;4.53;;;1.90;;
7969;SDS011;4030;52.362;9.206;2024-03-25T07:54:50;7.90;;;2.30;;
7969;SDS011;4030;52.362;9.206;2024-03-25T07:57:16;9.88;;;2.55;;
7969;SDS011;4030;52.362;9.206;2024-03-25T07:59:43;4.47;;;1.90;;
7969;SDS011;4030;52.362;9.206;2024-03-25T08:02:08;6.70;;;2.20;;
7969;SDS011;4030;52.362;9.206;2024-03-25T08:04:34;6.13;;;1.90;;
7969;SDS011;4030;52.362;9.206;2024-03-25T08:07:00;6.82;;;1.90;;
7969;SDS011;4030;52.362;9.206;2024-03-25T08:09:25;4.82;;;1.77;;
7969;SDS011;4030;52.362;9.206;2024-03-25T08:11:51;6.00;;;2.05;;
7969;SDS011;4030;52.362;9.206;2024-03-25T08:14:17;6.57;;;2.15;;
7969;SDS011;4030;52.362;9.206;2024-03-25T08:16:42;5.95;;;2.20;;
7969;SDS011;4030;52.362;9.206;2024-03-25T08:19:08;6.10;;;2.13;;
7969;SDS011;4030;52.362;9.206;2024-03-25T08:21:34;7.60;;;2.30;;
7969;SDS011;4030;52.362;9.206;2024-03-25T08:23:59;5.55;;;2.10;;
7969;SDS011;4030;52.362;9.206;2024-03-25T08:26:25;5.40;;;2.10;;
7969;SDS011;4030;52.362;9.206;2024-03-25T08:28:51;7.00;;;2.15;;
7969;SDS011;4030;52.362;9.206;2024-03-25T08:31:16;7.95;;;2.13;;
7969;SDS011;4030;52.362;9.206;2024-03-25T08:33:42;8.40;;;2.35;;
7969;SDS011;4030;52.362;9.206;2024-03-25T08:36:08;6.55;;;2.28;;
7969;SDS011;4030;52.362;9.206;2024-03-25T08:38:34;4.68;;;1.85;;
7969;SDS011;4030;52.362;9.206;2024-03-25T08:40:59;6.97;;;2.38;;
7969;SDS011;4030;52.362;9.206;2024-03-25T08:43:25;7.15;;;2.10;;
7969;SDS011;4030;52.362;9.206;2024-03-25T08:45:51;4.78;;;1.85;;
7969;SDS011;4030;52.362;9.206;2024-03-25T08:48:16;4.65;;;1.83;;
7969;SDS011;4030;52.362;9.206;2024-03-25T08:50:42;8.40;;;2.33;;
7969;SDS011;4030;52.362;9.206;2024-03-25T08:53:08;6.13;;;1.80;;
7969;SDS011;4030;52.362;9.206;2024-03-25T08:55:34;5.85;;;2.13;;
7969;SDS011;4030;52.362;9.206;2024-03-25T08:57:59;6.30;;;1.80;;
7969;SDS011;4030;52.362;9.206;2024-03-25T09:00:25;6.63;;;2.20;;
7969;SDS011;4030;52.362;9.206;2024-03-25T09:02:52;6.75;;;2.05;;
7969;SDS011;4030;52.362;9.206;2024-03-25T09:05:21;5.13;;;1.88;;
7969;SDS011;4030;52.362;9.206;2024-03-25T09:07:50;8.73;;;2.25;;
7969;SDS011;4030;52.362;9.206;2024-03-25T09:10:19;5.60;;;1.88;;
7969;SDS011;4030;52.362;9.206;2024-03-25T09:13:03;4.45;;;1.58;;
7969;SDS011;4030;52.362;9.206;2024-03-25T09:15:29;5.30;;;1.77;;
7969;SDS011;4030;52.362;9.206;2024-03-25T09:17:55;5.03;;;1.80;;
7969;SDS011;4030;52.362;9.206;2024-03-25T09:20:21;4.93;;;1.63;;
7969;SDS011;4030;52.362;9.206;2024-03-25T09:22:47;5.18;;;1.90;;
7969;SDS011;4030;52.362;9.206;2024-03-25T09:25:16;5.60;;;1.80;;
7969;SDS011;4030;52.362;9.206;2024-03-25T09:27:48;6.40;;;2.13;;
7969;SDS011;4030;52.362;9.206;2024-03-25T09:30:15;6.32;;;1.90;;
7969;SDS011;4030;52.362;9.206;2024-03-25T09:32:43;5.28;;;1.95;;
7969;SDS011;4030;52.362;9.206;2024-03-25T09:35:10;6.50;;;2.28;;
7969;SDS011;4030;52.362;9.206;2024-03-25T09:37:36;4.93;;;1.80;;
7969;SDS011;4030;52.362;9.206;2024-03-25T09:40:02;6.75;;;1.60;;
7969;SDS011;4030;52.362;9.206;2024-03-25T09:45:16;5.50;;;1.63;;
7969;SDS011;4030;52.362;9.206;2024-03-25T09:47:46;4.35;;;1.80;;
7969;SDS011;4030;52.362;9.206;2024-03-25T09:50:16;5.22;;;1.70;;
7969;SDS011;4030;52.362;9.206;2024-03-25T09:52:44;4.30;;;1.60;;
7969;SDS011;4030;52.362;9.206;2024-03-25T09:55:11;6.80;;;1.65;;
7969;SDS011;4030;52.362;9.206;2024-03-25T09:57:37;5.43;;;1.70;;
7969;SDS011;4030;52.362;9.206;2024-03-25T10:00:04;4.63;;;2.15;;
7969;SDS011;4030;52.362;9.206;2024-03-25T10:02:32;4.78;;;1.60;;
7969;SDS011;4030;52.362;9.206;2024-03-25T10:04:59;5.07;;;1.60;;
7969;SDS011;4030;52.362;9.206;2024-03-25T10:07:25;6.05;;;1.65;;
7969;SDS011;4030;52.362;9.206;2024-03-25T10:09:51;5.22;;;2.00;;
7969;SDS011;4030;52.362;9.206;2024-03-25T10:12:16;5.45;;;1.85;;
7969;SDS011;4030;52.362;9.206;2024-03-25T10:14:42;4.82;;;2.03;;
7969;SDS011;4030;52.362;9.206;2024-03-25T10:17:08;5.05;;;1.77;;
7969;SDS011;4030;52.362;9.206;2024-03-25T10:19:34;4.28;;;1.85;;
7969;SDS011;4030;52.362;9.206;2024-03-25T10:22:01;6.40;;;1.88;;
7969;SDS011;4030;52.362;9.206;2024-03-25T10:24:37;4.00;;;1.85;;
7969;SDS011;4030;52.362;9.206;2024-03-25T10:27:09;5.13;;;1.70;;
7969;SDS011;4030;52.362;9.206;2024-03-25T10:29:42;5.03;;;1.67;;
7969;SDS011;4030;52.362;9.206;2024-03-25T10:32:08;5.53;;;1.80;;
7969;SDS011;4030;52.362;9.206;2024-03-25T10:34:34;5.13;;;1.75;;
7969;SDS011;4030;52.362;9.206;2024-03-25T10:36:59;4.32;;;1.83;;
7969;SDS011;4030;52.362;9.206;2024-03-25T10:39:27;3.50;;;1.30;;
7969;SDS011;4030;52.362;9.206;2024-03-25T10:41:57;3.53;;;1.40;;
7969;SDS011;4030;52.362;9.206;2024-03-25T10:44:25;6.07;;;1.75;;
7969;SDS011;4030;52.362;9.206;2024-03-25T10:46:55;4.85;;;1.80;;
7969;SDS011;4030;52.362;9.206;2024-03-25T10:49:31;2.85;;;1.30;;
7969;SDS011;4030;52.362;9.206;2024-03-25T10:52:02;5.25;;;1.75;;
7969;SDS011;4030;52.362;9.206;2024-03-25T10:54:30;6.20;;;1.70;;
7969;SDS011;4030;52.362;9.206;2024-03-25T10:56:57;3.70;;;1.80;;
7969;SDS011;4030;52.362;9.206;2024-03-25T10:59:24;3.75;;;1.55;;
7969;SDS011;4030;52.362;9.206;2024-03-25T11:01:54;3.08;;;1.58;;
7969;SDS011;4030;52.362;9.206;2024-03-25T11:04:21;3.65;;;1.58;;
7969;SDS011;4030;52.362;9.206;2024-03-25T11:06:51;5.30;;;1.58;;
7969;SDS011;4030;52.362;9.206;2024-03-25T11:09:23;3.60;;;1.40;;
7969;SDS011;4030;52.362;9.206;2024-03-25T11:11:52;4.78;;;1.30;;
7969;SDS011;4030;52.362;9.206;2024-03-25T11:14:18;3.60;;;1.38;;
7969;SDS011;4030;52.362;9.206;2024-03-25T11:16:48;4.38;;;1.50;;
7969;SDS011;4030;52.362;9.206;2024-03-25T11:19:20;5.15;;;1.50;;
7969;SDS011;4030;52.362;9.206;2024-03-25T11:21:50;5.22;;;1.65;;
7969;SDS011;4030;52.362;9.206;2024-03-25T11:24:26;3.97;;;1.38;;
7969;SDS011;4030;52.362;9.206;2024-03-25T11:26:53;2.35;;;1.30;;
7969;SDS011;4030;52.362;9.206;2024-03-25T11:29:19;2.92;;;1.30;;
7969;SDS011;4030;52.362;9.206;2024-03-25T11:31:44;3.30;;;1.50;;
7969;SDS011;4030;52.362;9.206;2024-03-25T11:34:13;3.22;;;1.33;;
7969;SDS011;4030;52.362;9.206;2024-03-25T11:36:39;2.88;;;1.42;;
7969;SDS011;4030;52.362;9.206;2024-03-25T11:39:05;3.33;;;1.33;;
7969;SDS011;4030;52.362;9.206;2024-03-25T11:41:40;4.60;;;1.30;;
7969;SDS011;4030;52.362;9.206;2024-03-25T11:44:10;2.80;;;1.30;;
7969;SDS011;4030;52.362;9.206;2024-03-25T11:46:40;3.17;;;1.30;;
7969;SDS011;4030;52.362;9.206;2024-03-25T11:49:06;2.78;;;1.10;;
7969;SDS011;4030;52.362;9.206;2024-03-25T11:51:34;3.35;;;1.30;;
7969;SDS011;4030;52.362;9.206;2024-03-25T11:54:02;2.85;;;1.02;;
7969;SDS011;4030;52.362;9.206;2024-03-25T11:56:29;2.88;;;1.38;;
7969;SDS011;4030;52.362;9.206;2024-03-25T11:58:55;3.03;;;1.17;;
7969;SDS011;4030;52.362;9.206;2024-03-25T12:01:22;3.47;;;1.30;;
7969;SDS011;4030;52.362;9.206;2024-03-25T12:03:47;2.85;;;1.20;;
7969;SDS011;4030;52.362;9.206;2024-03-25T12:06:13;3.50;;;1.30;;
7969;SDS011;4030;52.362;9.206;2024-03-25T12:08:39;3.85;;;1.30;;
7969;SDS011;4030;52.362;9.206;2024-03-25T12:11:24;3.45;;;1.27;;
7969;SDS011;4030;52.362;9.206;2024-03-25T12:13:50;4.32;;;1.30;;
7969;SDS011;4030;52.362;9.206;2024-03-25T12:16:16;3.25;;;1.20;;
7969;SDS011;4030;52.362;9.206;2024-03-25T12:18:42;3.78;;;1.25;;
7969;SDS011;4030;52.362;9.206;2024-03-25T12:21:08;4.68;;;1.60;;
7969;SDS011;4030;52.362;9.206;2024-03-25T12:23:35;3.50;;;1.23;;
7969;SDS011;4030;52.362;9.206;2024-03-25T12:26:02;3.55;;;1.23;;
7969;SDS011;4030;52.362;9.206;2024-03-25T12:28:32;2.83;;;1.10;;
7969;SDS011;4030;52.362;9.206;2024-03-25T12:31:00;3.35;;;1.17;;
7969;SDS011;4030;52.362;9.206;2024-03-25T12:33:25;2.90;;;1.23;;
7969;SDS011;4030;52.362;9.206;2024-03-25T12:35:51;2.85;;;1.00;;
7969;SDS011;4030;52.362;9.206;2024-03-25T12:38:24;3.63;;;1.08;;
7969;SDS011;4030;52.362;9.206;2024-03-25T12:41:08;3.78;;;1.10;;
7969;SDS011;4030;52.362;9.206;2024-03-25T12:43:37;2.15;;;1.10;;
7969;SDS011;4030;52.362;9.206;2024-03-25T12:46:08;3.90;;;1.33;;
7969;SDS011;4030;52.362;9.206;2024-03-25T12:48:34;2.55;;;0.90;;
7969;SDS011;4030;52.362;9.206;2024-03-25T12:51:01;2.97;;;1.20;;
7969;SDS011;4030;52.362;9.206;2024-03-25T12:53:27;2.78;;;1.17;;
7969;SDS011;4030;52.362;9.206;2024-03-25T12:55:52;3.38;;;1.20;;
7969;SDS011;4030;52.362;9.206;2024-03-25T12:58:18;3.00;;;1.40;;
7969;SDS011;4030;52.362;9.206;2024-03-25T13:00:44;2.33;;;1.10;;
7969;SDS011;4030;52.362;9.206;2024-03-25T13:03:10;3.60;;;1.27;;
7969;SDS011;4030;52.362;9.206;2024-03-25T13:05:37;3.05;;;1.00;;
7969;SDS011;4030;52.362;9.206;2024-03-25T13:08:03;2.80;;;1.08;;
7969;SDS011;4030;52.362;9.206;2024-03-25T13:10:29;2.47;;;1.08;;
7969;SDS011;4030;52.362;9.206;2024-03-25T13:12:56;2.45;;;0.90;;
7969;SDS011;4030;52.362;9.206;2024-03-25T13:15:22;3.92;;;1.35;;
7969;SDS011;4030;52.362;9.206;2024-03-25T13:17:48;4.75;;;1.15;;
7969;SDS011;4030;52.362;9.206;2024-03-25T13:20:14;2.83;;;1.05;;
7969;SDS011;4030;52.362;9.206;2024-03-25T13:22:40;3.53;;;1.00;;
7969;SDS011;4030;52.362;9.206;2024-03-25T13:25:06;1.88;;;0.95;;
7969;SDS011;4030;52.362;9.206;2024-03-25T13:27:32;2.90;;;1.10;;
7969;SDS011;4030;52.362;9.206;2024-03-25T13:29:58;1.92;;;0.90;;
7969;SDS011;4030;52.362;9.206;2024-03-25T13:32:24;2.75;;;1.20;;
7969;SDS011;4030;52.362;9.206;2024-03-25T13:34:50;2.45;;;1.10;;
7969;SDS011;4030;52.362;9.206;2024-03-25T13:37:15;2.97;;;1.10;;
7969;SDS011;4030;52.362;9.206;2024-03-25T13:39:41;2.72;;;1.00;;
7969;SDS011;4030;52.362;9.206;2024-03-25T13:42:07;3.17;;;1.30;;
7969;SDS011;4030;52.362;9.206;2024-03-25T13:44:33;2.83;;;1.20;;
7969;SDS011;4030;52.362;9.206;2024-03-25T13:46:58;4.88;;;1.30;;
7969;SDS011;4030;52.362;9.206;2024-03-25T13:49:24;2.45;;;1.02;;
7969;SDS011;4030;52.362;9.206;2024-03-25T13:51:56;2.10;;;1.05;;
7969;SDS011;4030;52.362;9.206;2024-03-25T13:54:27;2.47;;;1.17;;
7969;SDS011;4030;52.362;9.206;2024-03-25T13:56:53;1.92;;;1.10;;
7969;SDS011;4030;52.362;9.206;2024-03-25T13:59:19;2.63;;;1.10;;
7969;SDS011;4030;52.362;9.206;2024-03-25T14:01:44;1.95;;;1.00;;
7969;SDS011;4030;52.362;9.206;2024-03-25T14:04:10;3.83;;;1.10;;
7969;SDS011;4030;52.362;9.206;2024-03-25T14:06:36;3.58;;;1.40;;
7969;SDS011;4030;52.362;9.206;2024-03-25T14:09:02;3.90;;;1.60;;
7969;SDS011;4030;52.362;9.206;2024-03-25T14:11:35;2.80;;;1.20;;
7969;SDS011;4030;52.362;9.206;2024-03-25T14:14:01;2.80;;;1.10;;
7969;SDS011;4030;52.362;9.206;2024-03-25T14:16:30;2.03;;;0.90;;
7969;SDS011;4030;52.362;9.206;2024-03-25T14:18:55;3.70;;;1.40;;
7969;SDS011;4030;52.362;9.206;2024-03-25T14:21:21;2.58;;;1.25;;
7969;SDS011;4030;52.362;9.206;2024-03-25T14:23:47;3.30;;;1.10;;
7969;SDS011;4030;52.362;9.206;2024-03-25T14:26:12;2.30;;;1.10;;
7969;SDS011;4030;52.362;9.206;2024-03-25T14:28:41;3.55;;;1.13;;
7969;SDS011;4030;52.362;9.206;2024-03-25T14:31:07;4.00;;;1.25;;
7969;SDS011;4030;52.362;9.206;2024-03-25T14:33:33;3.17;;;1.20;;
7969;SDS011;4030;52.362;9.206;2024-03-25T14:35:59;2.08;;;0.90;;
7969;SDS011;4030;52.362;9.206;2024-03-25T14:38:24;2.78;;;1.10;;
7969;SDS011;4030;52.362;9.206;2024-03-25T14:40:50;3.58;;;1.30;;
7969;SDS011;4030;52.362;9.206;2024-03-25T14:43:16;2.35;;;1.05;;
7969;SDS011;4030;52.362;9.206;2024-03-25T14:45:44;3.20;;;1.33;;
7969;SDS011;4030;52.362;9.206;2024-03-25T14:48:10;4.10;;;1.48;;
7969;SDS011;4030;52.362;9.206;2024-03-25T14:50:36;2.65;;;1.10;;
7969;SDS011;4030;52.362;9.206;2024-03-25T14:53:02;3.15;;;1.20;;
7969;SDS011;4030;52.362;9.206;2024-03-25T14:55:29;2.17;;;1.00;;
7969;SDS011;4030;52.362;9.206;2024-03-25T14:57:55;2.03;;;1.00;;
7969;SDS011;4030;52.362;9.206;2024-03-25T15:00:20;2.47;;;1.23;;
7969;SDS011;4030;52.362;9.206;2024-03-25T15:02:49;2.25;;;1.10;;
7969;SDS011;4030;52.362;9.206;2024-03-25T15:05:15;2.42;;;1.25;;
7969;SDS011;4030;52.362;9.206;2024-03-25T15:07:41;2.10;;;1.00;;
7969;SDS011;4030;52.362;9.206;2024-03-25T15:10:07;2.63;;;1.10;;
7969;SDS011;4030;52.362;9.206;2024-03-25T15:12:33;2.25;;;1.13;;
7969;SDS011;4030;52.362;9.206;2024-03-25T15:15:01;3.28;;;1.02;;